createdAt,value
2022-12-31T00:16:41.549Z,10.06
2022-12-31T01:16:41.544Z,10.63
2022-12-31T01:46:41.639Z,10.94
2022-12-31T02:16:41.532Z,11.13
2022-12-31T02:46:41.568Z,10.88
2022-12-31T03:16:41.523Z,10.81
2022-12-31T03:46:41.540Z,11.13
2022-12-31T04:16:41.574Z,11.25
2022-12-31T04:46:41.553Z,11.56
2022-12-31T05:16:41.599Z,11.75
2022-12-31T05:46:41.568Z,12
2022-12-31T06:16:41.567Z,12.19
2022-12-31T06:46:41.627Z,12.06
2022-12-31T07:16:41.577Z,12
2022-12-31T07:46:41.661Z,12.25
2022-12-31T08:16:41.630Z,12.75
2022-12-31T08:46:41.583Z,13.13
2022-12-31T09:16:41.631Z,13.38
2022-12-31T09:46:41.589Z,13.75
2022-12-31T10:16:41.667Z,14.06
2022-12-31T10:46:41.671Z,14.5
2022-12-31T11:16:41.616Z,15.19
2022-12-31T11:46:41.650Z,15.06
2022-12-31T12:16:41.708Z,15.63
2022-12-31T12:46:47.617Z,16.13
2022-12-31T13:16:41.655Z,16.38
2022-12-31T13:46:41.627Z,16.13
2022-12-31T14:16:41.672Z,15.94
2022-12-31T14:46:41.633Z,15.75
2022-12-31T15:16:41.685Z,14.88
2022-12-31T15:46:41.636Z,14.19
2022-12-31T16:16:41.642Z,13.38
2022-12-31T16:46:41.742Z,12.88
2022-12-31T17:16:41.639Z,12.75
2022-12-31T17:46:41.725Z,12.38
2022-12-31T18:16:41.718Z,12.13
2022-12-31T18:46:41.686Z,12.06
2022-12-31T19:16:41.658Z,11.75
2022-12-31T19:46:41.669Z,11.5
2022-12-31T20:16:41.708Z,11.56
2022-12-31T20:46:41.749Z,11.75
2022-12-31T21:16:41.660Z,12.31
2022-12-31T21:47:00.856Z,12.5
2022-12-31T22:16:41.764Z,12.44
2022-12-31T22:46:41.730Z,12.19
2022-12-31T23:16:41.680Z,11.94
2022-12-31T23:46:41.765Z,11.63
